Ns Challenger — A8FD6 — position and weather

sailwx.info

Track history (hours):
 
Tides and Currents Weather Stations Pressure Air Temp Water Temp Dewpoint Dewpoint Depression Visibility Wind Speed Wind Dir Waves Ship Positions

Ns Challenger

Last reported at 2018-Aug-02 21:46 UTC. Time now 2018-Aug-14 07:04 UTC.
Position N 28°43' W 095°05'.
Warning: this ship's position is 11 days out of date.

Length 244 m; draft 8.2 m.

Type: Ship. MMSI: 636012381.

Date/timePositionNaut miles runAvg speedWind from/ knotsBaromVisibWave heightAir tempDewpointWater temp
2018-Aug-02 21:46N 28°43' W 095°05'311.8
2018-Aug-02 21:28N 28°45' W 095°08'612.1
2018-Aug-02 21:00N 28°50' W 095°12'611.3
2018-Aug-02 20:30N 28°54' W 095°16'3 0.1
2018-Jul-31 19:29N 28°57' W 095°19'3 5.6
2018-Jul-31 19:00N 28°55' W 095°17'510.1
2018-Jul-31 18:30N 28°52' W 095°12'5 9.9
2018-Jul-31 18:00N 28°48' W 095°08'1 0.1
2018-Jul-31 02:21N 28°48' W 095°07'0 0.0
2018-Jul-30 06:39N 28°48' W 095°07'0 0.0
2018-Jul-30 06:30N 28°48' W 095°07'0 0.0
2018-Jul-30 04:27N 28°48' W 095°07'0 0.0
2018-Jul-30 01:12N 28°48' W 095°07'0 0.0
2018-Jul-30 01:00N 28°48' W 095°07'0 0.0
2018-Jul-30 00:30N 28°48' W 095°07'0 0.0
2018-Jul-30 00:00N 28°48' W 095°07'0 0.0
2018-Jul-29 23:30N 28°48' W 095°07'0 0.0
2018-Jul-29 22:57N 28°48' W 095°07'0 0.0
2018-Jul-29 22:03N 28°48' W 095°07'0 0.1
2018-Jul-29 21:57N 28°48' W 095°07'0 0.1
2018-Jul-29 19:17N 28°48' W 095°07'0 0.0
2018-Jul-29 18:53N 28°48' W 095°07'0 0.0
2018-Jul-29 18:26N 28°48' W 095°06'0 0.0
2018-Jul-29 17:59N 28°48' W 095°06'0 0.0
2018-Jul-29 17:23N 28°48' W 095°06'0 0.0
2018-Jul-29 16:44N 28°48' W 095°06'0 0.0
2018-Jul-29 14:32N 28°48' W 095°06'0 0.0
2018-Jul-29 13:59N 28°48' W 095°07'0 0.0
2018-Jul-29 13:26N 28°48' W 095°07'0 0.0
2018-Jul-29 00:17N 28°48' W 095°07'0 0.0
2018-Jul-28 23:53N 28°48' W 095°07'0 0.0
2018-Jul-28 23:26N 28°48' W 095°07'0 0.0
2018-Jul-28 22:38N 28°48' W 095°07'0 0.0
2018-Jul-28 22:11N 28°48' W 095°07'0 0.0
2018-Jul-28 14:17N 28°48' W 095°06'0 0.0
2018-Jul-28 13:47N 28°48' W 095°06'0 0.0
2018-Jul-28 06:34N 28°48' W 095°07'0 0.1
2018-Jul-28 06:28N 28°48' W 095°07'0 0.0
2018-Jul-28 05:40N 28°48' W 095°07'0 0.0
2018-Jul-28 05:28N 28°48' W 095°07'0 0.0
2018-Jul-28 04:58N 28°48' W 095°07'0 0.1
2018-Jul-28 04:16N 28°48' W 095°07'0 0.0
2018-Jul-28 03:58N 28°48' W 095°07'0 0.0
2018-Jul-28 03:19N 28°48' W 095°07'0 0.0
2018-Jul-28 02:58N 28°48' W 095°07'0 0.0
2018-Jul-28 02:28N 28°48' W 095°07'0 0.0
2018-Jul-28 01:49N 28°48' W 095°07'0 0.1
2018-Jul-28 01:25N 28°48' W 095°07'0 0.0
2018-Jul-27 12:13N 28°48' W 095°06'0 0.1
2018-Jul-27 11:52N 28°48' W 095°06'0 0.0
2018-Jul-27 06:25N 28°48' W 095°07'0 0.1
2018-Jul-27 05:40N 28°48' W 095°07'0 0.5
2018-Jul-27 05:29N 28°48' W 095°07'2 3.3
2018-Jul-27 05:01N 28°46' W 095°07'5 9.4
2018-Jul-27 04:31N 28°43' W 095°03'611.5
2018-Jul-27 04:00N 28°38' W 094°59'712.0
2018-Jul-27 03:28N 28°34' W 094°53'613.0
2018-Jul-27 02:59N 28°29' W 094°49'812.9
2018-Jul-27 02:20N 28°23' W 094°43'712.8
2018-Jul-27 01:45N 28°17' W 094°37'312.7
2018-Jul-27 01:30N 28°15' W 094°35'612.6
2018-Jul-27 01:00N 28°10' W 094°30'612.3
2018-Jul-27 00:30N 28°05' W 094°25'612.4
2018-Jul-26 23:59N 27°59' W 094°25'29612.1
2018-Jul-25 23:37N 23°06' W 093°45'212.9
2018-Jul-25 23:29N 23°04' W 093°45'712.9
2018-Jul-25 22:59N 22°57' W 093°45'612.9
2018-Jul-25 22:30N 22°51' W 093°44'  
Track history (hours):
 
Tides and Currents Weather Stations Pressure Air Temp Water Temp Dewpoint Dewpoint Depression Visibility Wind Speed Wind Dir Waves Ship Positions

Ns Challenger

Last reported at 2018-Aug-02 21:46 UTC. Time now 2018-Aug-14 07:04 UTC.
Position N 28°43' W 095°05'.
Warning: this ship's position is 11 days out of date.

Length 244 m; draft 8.2 m.

Type: Ship. MMSI: 636012381.

Date/timePositionNaut miles runAvg speedWind from/ knotsBaromVisibWave heightAir tempDewpointWater temp
2018-Aug-02 21:46N 28°43' W 095°05'311.8
2018-Aug-02 21:28N 28°45' W 095°08'612.1
2018-Aug-02 21:00N 28°50' W 095°12'611.3
2018-Aug-02 20:30N 28°54' W 095°16'3 0.1
2018-Jul-31 19:29N 28°57' W 095°19'3 5.6
2018-Jul-31 19:00N 28°55' W 095°17'510.1
2018-Jul-31 18:30N 28°52' W 095°12'5 9.9
2018-Jul-31 18:00N 28°48' W 095°08'1 0.1
2018-Jul-31 02:21N 28°48' W 095°07'0 0.0
2018-Jul-30 06:39N 28°48' W 095°07'0 0.0
2018-Jul-30 06:30N 28°48' W 095°07'0 0.0
2018-Jul-30 04:27N 28°48' W 095°07'0 0.0
2018-Jul-30 01:12N 28°48' W 095°07'0 0.0
2018-Jul-30 01:00N 28°48' W 095°07'0 0.0
2018-Jul-30 00:30N 28°48' W 095°07'0 0.0
2018-Jul-30 00:00N 28°48' W 095°07'0 0.0
2018-Jul-29 23:30N 28°48' W 095°07'0 0.0
2018-Jul-29 22:57N 28°48' W 095°07'0 0.0
2018-Jul-29 22:03N 28°48' W 095°07'0 0.1
2018-Jul-29 21:57N 28°48' W 095°07'0 0.1
2018-Jul-29 19:17N 28°48' W 095°07'0 0.0
2018-Jul-29 18:53N 28°48' W 095°07'0 0.0
2018-Jul-29 18:26N 28°48' W 095°06'0 0.0
2018-Jul-29 17:59N 28°48' W 095°06'0 0.0
2018-Jul-29 17:23N 28°48' W 095°06'0 0.0
2018-Jul-29 16:44N 28°48' W 095°06'0 0.0
2018-Jul-29 14:32N 28°48' W 095°06'0 0.0
2018-Jul-29 13:59N 28°48' W 095°07'0 0.0
2018-Jul-29 13:26N 28°48' W 095°07'0 0.0
2018-Jul-29 00:17N 28°48' W 095°07'0 0.0
2018-Jul-28 23:53N 28°48' W 095°07'0 0.0
2018-Jul-28 23:26N 28°48' W 095°07'0 0.0
2018-Jul-28 22:38N 28°48' W 095°07'0 0.0
2018-Jul-28 22:11N 28°48' W 095°07'0 0.0
2018-Jul-28 14:17N 28°48' W 095°06'0 0.0
2018-Jul-28 13:47N 28°48' W 095°06'0 0.0
2018-Jul-28 06:34N 28°48' W 095°07'0 0.1
2018-Jul-28 06:28N 28°48' W 095°07'0 0.0
2018-Jul-28 05:40N 28°48' W 095°07'0 0.0
2018-Jul-28 05:28N 28°48' W 095°07'0 0.0
2018-Jul-28 04:58N 28°48' W 095°07'0 0.1
2018-Jul-28 04:16N 28°48' W 095°07'0 0.0
2018-Jul-28 03:58N 28°48' W 095°07'0 0.0
2018-Jul-28 03:19N 28°48' W 095°07'0 0.0
2018-Jul-28 02:58N 28°48' W 095°07'0 0.0
2018-Jul-28 02:28N 28°48' W 095°07'0 0.0
2018-Jul-28 01:49N 28°48' W 095°07'0 0.1
2018-Jul-28 01:25N 28°48' W 095°07'0 0.0
2018-Jul-27 12:13N 28°48' W 095°06'0 0.1
2018-Jul-27 11:52N 28°48' W 095°06'0 0.0
2018-Jul-27 06:25N 28°48' W 095°07'0 0.1
2018-Jul-27 05:40N 28°48' W 095°07'0 0.5
2018-Jul-27 05:29N 28°48' W 095°07'2 3.3
2018-Jul-27 05:01N 28°46' W 095°07'5 9.4
2018-Jul-27 04:31N 28°43' W 095°03'611.5
2018-Jul-27 04:00N 28°38' W 094°59'712.0
2018-Jul-27 03:28N 28°34' W 094°53'613.0
2018-Jul-27 02:59N 28°29' W 094°49'812.9
2018-Jul-27 02:20N 28°23' W 094°43'712.8
2018-Jul-27 01:45N 28°17' W 094°37'312.7
2018-Jul-27 01:30N 28°15' W 094°35'612.6
2018-Jul-27 01:00N 28°10' W 094°30'612.3
2018-Jul-27 00:30N 28°05' W 094°25'612.4
2018-Jul-26 23:59N 27°59' W 094°25'29612.1
2018-Jul-25 23:37N 23°06' W 093°45'212.9
2018-Jul-25 23:29N 23°04' W 093°45'712.9
2018-Jul-25 22:59N 22°57' W 093°45'612.9
2018-Jul-25 22:30N 22°51' W 093°44'  

Dump ship's entire track history